Aeroporto :
LOGIN :

Iscrizione | Disclaimer

   EN    FR    IT 

 










Sommario :    VFR   VFR Marginale   IFR   IFR Intensivo   IFR Molto Intensivo
Visibilità : 
Base nubi : 
>= 8 km
>= 3000ft
5 / 8 km
1000 / 3000 ft
1500m / 5 km
500 / 1000 ft
800 / 1500m
200 / 500 ft
< 800m
< 200 ft
Simboli :   Temporali  Nebbia  Neve Forte  Precipitazioni Forti  Vento > 20 kt
SIGMETs :   Varie  Temporali  Ghiacco  Turbolenza  Onda orograficha  Ceneri Vulcaniche






- Altitudine del aeroporto : 626 ft
- Codice IATA : CRA


LRCV - Craiova

ULTIMO METAR :
  • 061700Z VRB02KT 0200 R27/0325N FZFG VV001 M02/M03 Q1022

METARs OBSOLETI :
  • 061630Z 24002KT 0150 R27/0350N FZFG VV001 M02/M02 Q1022
  • 061600Z VRB01KT 0100 R27/0350N FZFG VV001 M02/M02 Q1022
  • 061530Z VRB02KT 0150 R27/0375N FZFG VV001 M02/M02 Q1022
  • 061500Z VRB02KT 0150 R27/0400N FZFG VV001 M02/M02 Q1022

TAF TAF LRCV
Valido dal 06 a 18 ore il 07 a 03 ore UTC


061700Z 0618/0703 VRB04KT 0150 FZFG VV001



MetMap, La meteo Aeronautica in un colpo d'occhio ! - Copyright ORBIFLY Dicembre 2007 - Disclaimer

ORBIFLY MET'MAP TEAM :

Programmazione e sviluppo : Alexandra Zaïnal
Concezione : Baudouin d'Aumeries
Aiuto per la programmazione : Marc-Olivier Méhu
Supporto tecnico e logistico : Manuel Goepfert
Aiuto per la traduzione : Arnaldo La Scala

Contatto : metmap@orbifly.com




FONTI E CREDITI :

   NOAA